Time;durP1;ratioP1;P1;durP2;ratioP2;P2;SDS_P1;SDS_P2;PMS_P1;PMS_P2;Temp;Humidity;BMP_temperature;BMP_pressure;BME280_temperature;BME280_humidity;BME280_pressure;Samples;Min_cycle;Max_cycle;Signal;HPM_P1;HPM_P2
2023/06/29 00:00:20;;;;;;;;;;;;;;;30.41;30.23;94275.03;4950548;28;7915;-62
2023/06/29 00:03:11;;;;;;;;;;;;;;;30.43;31.22;94281.53;4954214;28;9617;-62
2023/06/29 00:06:12;;;;;;;;;;;;;;;30.44;30.54;94285.06;4968563;28;9412;-62
2023/06/29 00:09:14;;;;;;;;;;;;;;;30.41;30.64;94273.00;4955191;28;7456;-62
2023/06/29 00:11:43;;;;;;;;;;;;;;;30.40;31.05;94268.00;4947952;28;7228;-62
2023/06/29 00:14:37;;;;;;;;;;;;;;;30.42;30.63;94273.75;4951449;28;7233;-62
2023/06/29 00:17:16;;;;;;;;;;;;;;;30.36;30.17;94273.91;4935296;28;6994;-62
2023/06/29 00:19:52;;;;;;;;;;;;;;;30.37;31.05;94267.06;4952462;28;7272;-62
2023/06/29 00:22:20;;;;;;;;;;;;;;;30.39;30.63;94274.84;4933363;28;9049;-62
2023/06/29 00:25:14;;;;;;;;;;;;;;;30.39;30.94;94277.63;4936748;28;6906;-61
2023/06/29 00:28:08;;;;;;;;;;;;;;;30.38;30.86;94265.75;4933953;28;7905;-62
2023/06/29 00:30:34;;;;;;;;;;;;;;;30.37;29.89;94261.53;4948238;28;9026;-62
2023/06/29 00:33:10;;;;;;;;;;;;;;;30.36;30.65;94260.03;4941327;28;7433;-62
2023/06/29 00:35:54;;;;;;;;;;;;;;;30.32;29.95;94254.06;5008099;28;7124;-62
2023/06/29 00:38:37;;;;;;;;;;;;;;;30.32;30.37;94261.69;5010916;28;7402;-62
2023/06/29 00:41:04;;;;;;;;;;;;;;;30.28;30.53;94248.13;5006117;28;7205;-62
2023/06/29 00:43:30;;;;;;;;;;;;;;;30.23;30.18;94251.78;4988784;28;7925;-62
2023/06/29 00:45:56;;;;;;;;;;;;;;;30.22;30.97;94247.53;5013329;28;7300;-62
2023/06/29 00:48:22;;;;;;;;;;;;;;;30.21;30.30;94248.78;5021411;28;7183;-62
2023/06/29 00:50:50;;;;;;;;;;;;;;;30.20;30.77;94243.81;5020925;28;7311;-62
2023/06/29 00:53:19;;;;;;;;;;;;;;;30.18;29.92;94249.16;5022187;28;7264;-62
2023/06/29 00:55:45;;;;;;;;;;;;;;;30.16;30.31;94241.38;5047647;28;7240;-62
2023/06/29 00:58:12;;;;;;;;;;;;;;;30.15;30.80;94236.38;5028640;28;7263;-62
2023/06/29 01:00:43;;;;;;;;;;;;;;;30.13;30.92;94230.63;5032286;28;6979;-62
2023/06/29 01:03:11;;;;;;;;;;;;;;;30.14;31.18;94238.41;5028441;28;9179;-62
2023/06/29 01:05:45;;;;;;;;;;;;;;;30.15;29.93;94234.34;5050149;28;8301;-62
2023/06/29 01:08:19;;;;;;;;;;;;;;;30.12;31.20;94243.78;5051610;28;8437;-62
2023/06/29 01:11:08;;;;;;;;;;;;;;;30.10;30.70;94232.44;5027912;28;7079;-62
2023/06/29 01:13:37;;;;;;;;;;;;;;;30.11;30.39;94235.97;5048527;28;7186;-62
2023/06/29 01:16:06;;;;;;;;;;;;;;;30.11;30.31;94220.06;5049799;28;8216;-62
2023/06/29 01:18:52;;;;;;;;;;;;;;;30.09;31.15;94211.56;5050647;28;6999;-62
2023/06/29 01:21:21;;;;;;;;;;;;;;;30.08;30.29;94212.84;5047315;28;7588;-62
2023/06/29 01:23:54;;;;;;;;;;;;;;;30.07;30.77;94211.38;5050320;28;7152;-62
2023/06/29 01:26:29;;;;;;;;;;;;;;;30.04;30.14;94203.38;5051225;28;7229;-62
2023/06/29 01:28:58;;;;;;;;;;;;;;;30.05;30.25;94205.63;5051552;28;7649;-62
2023/06/29 01:31:31;;;;;;;;;;;;;;;30.04;30.08;94206.91;5047389;28;9351;-62
2023/06/29 01:34:23;;;;;;;;;;;;;;;30.04;31.19;94206.16;5030465;28;7274;-62
2023/06/29 01:36:51;;;;;;;;;;;;;;;30.03;30.17;94207.44;4984402;28;9078;-62
2023/06/29 01:39:42;;;;;;;;;;;;;;;30.02;29.98;94208.72;4982260;28;6995;-62
2023/06/29 01:42:20;;;;;;;;;;;;;;;30.00;30.22;94206.50;4979847;28;7275;-62
2023/06/29 01:44:49;;;;;;;;;;;;;;;29.98;30.51;94203.53;4982796;28;7418;-62
2023/06/29 01:47:18;;;;;;;;;;;;;;;30.00;30.34;94200.97;4963129;28;7947;-62
2023/06/29 01:49:46;;;;;;;;;;;;;;;29.99;31.07;94196.72;4981014;28;7073;-62
2023/06/29 01:52:15;;;;;;;;;;;;;;;29.99;30.36;94195.97;4980242;28;9564;-62
2023/06/29 01:55:14;;;;;;;;;;;;;;;30.00;29.89;94208.53;4991166;28;9062;-62
2023/06/29 01:57:53;;;;;;;;;;;;;;;29.97;29.96;94202.03;4867969;29;7855;-62
2023/06/29 02:00:38;;;;;;;;;;;;;;;29.98;31.04;94208.34;4881765;29;9163;-62
2023/06/29 02:03:04;;;;;;;;;;;;;;;29.97;30.81;94202.03;4896970;29;7048;-62
2023/06/29 02:05:43;;;;;;;;;;;;;;;29.97;29.88;94193.72;4897630;29;7173;-62
2023/06/29 02:08:30;;;;;;;;;;;;;;;29.97;30.35;94202.03;4897708;29;8922;-62
2023/06/29 02:11:05;;;;;;;;;;;;;;;29.98;29.86;94209.09;4898659;29;9131;-62
2023/06/29 02:13:31;;;;;;;;;;;;;;;29.95;30.31;94198.34;4923065;28;8929;-63
2023/06/29 02:15:57;;;;;;;;;;;;;;;29.93;30.89;94198.88;4939439;28;7268;-62
2023/06/29 02:18:25;;;;;;;;;;;;;;;29.95;30.08;94195.56;4939334;28;7206;-63
2023/06/29 02:20:53;;;;;;;;;;;;;;;29.95;31.00;94195.56;4938476;28;8829;-62
2023/06/29 02:23:49;;;;;;;;;;;;;;;29.96;30.15;94194.28;4940029;28;7360;-63
2023/06/29 02:26:50;;;;;;;;;;;;;;;29.95;31.18;94196.28;4900046;29;9028;-63
2023/06/29 02:29:18;;;;;;;;;;;;;;;29.90;30.84;94197.19;4863074;29;7217;-62
2023/06/29 02:31:50;;;;;;;;;;;;;;;29.94;30.03;94205.91;4863792;29;9022;-63
2023/06/29 02:34:16;;;;;;;;;;;;;;;29.92;31.13;94202.94;4891229;29;9447;-62
2023/06/29 02:36:42;;;;;;;;;;;;;;;29.93;30.07;94198.88;4892970;29;7208;-63
2023/06/29 02:39:08;;;;;;;;;;;;;;;29.93;30.61;94196.09;4875940;29;7439;-63
2023/06/29 02:41:34;;;;;;;;;;;;;;;29.97;30.52;94190.94;4890851;29;6991;-62
2023/06/29 02:44:00;;;;;;;;;;;;;;;29.98;30.23;94189.66;4890965;29;7221;-62
2023/06/29 02:46:26;;;;;;;;;;;;;;;30.00;30.37;94184.31;4891396;29;7008;-61
2023/06/29 02:48:58;;;;;;;;;;;;;;;30.03;30.41;94185.25;4891558;29;6983;-62
2023/06/29 02:51:26;;;;;;;;;;;;;;;30.00;30.99;94184.31;4892673;29;9182;-62
2023/06/29 02:53:52;;;;;;;;;;;;;;;30.03;30.93;94186.00;4892585;29;9042;-62
2023/06/29 02:56:18;;;;;;;;;;;;;;;30.05;30.51;94191.00;4892277;29;6988;-62
2023/06/29 02:58:44;;;;;;;;;;;;;;;30.05;30.80;94202.84;4891530;29;7267;-62
2023/06/29 03:01:11;;;;;;;;;;;;;;;30.04;30.64;94201.34;4891384;29;9143;-62
2023/06/29 03:03:37;;;;;;;;;;;;;;;30.01;31.06;94196.16;5007270;28;9461;-62
2023/06/29 03:06:03;;;;;;;;;;;;;;;30.05;30.14;94202.09;5048214;28;9570;-62
2023/06/29 03:08:55;;;;;;;;;;;;;;;30.07;31.34;94205.06;5029173;28;10567;-62
2023/06/29 03:11:26;;;;;;;;;;;;;;;30.04;30.41;94190.25;4973703;28;8760;-62
2023/06/29 03:14:26;;;;;;;;;;;;;;;30.03;31.23;94194.31;4983757;28;7320;-62
2023/06/29 03:17:01;;;;;;;;;;;;;;;29.99;30.39;94196.72;4932765;29;7054;-62
2023/06/29 03:19:49;;;;;;;;;;;;;;;30.03;31.37;94191.56;4933635;28;9117;-62
2023/06/29 03:22:17;;;;;;;;;;;;;;;30.03;30.83;94197.09;4932804;29;7227;-62
2023/06/29 03:24:52;;;;;;;;;;;;;;;30.03;30.77;94194.31;4930531;29;7236;-62
2023/06/29 03:27:19;;;;;;;;;;;;;;;30.00;30.82;94195.41;4932468;29;9256;-62
2023/06/29 03:29:50;;;;;;;;;;;;;;;29.98;30.49;94197.22;4931482;29;7210;-62
2023/06/29 03:32:26;;;;;;;;;;;;;;;30.01;31.46;94196.16;4933774;28;7241;-62
2023/06/29 03:35:07;;;;;;;;;;;;;;;30.00;31.02;94194.66;4933865;29;6976;-62
2023/06/29 03:37:52;;;;;;;;;;;;;;;30.00;31.18;94198.19;4933633;28;7254;-62
2023/06/29 03:40:32;;;;;;;;;;;;;;;29.98;30.79;94197.97;4932139;29;8752;-62
2023/06/29 03:43:11;;;;;;;;;;;;;;;30.00;31.58;94197.44;4935328;28;7576;-63
2023/06/29 03:45:51;;;;;;;;;;;;;;;29.97;30.53;94190.22;4917742;29;7058;-62
2023/06/29 03:48:33;;;;;;;;;;;;;;;30.00;30.93;94195.41;4954793;28;7340;-62
2023/06/29 03:50:59;;;;;;;;;;;;;;;29.99;31.59;94199.47;4988704;28;7157;-63
2023/06/29 03:53:37;;;;;;;;;;;;;;;29.97;30.32;94190.22;5032818;28;9100;-63
2023/06/29 03:56:21;;;;;;;;;;;;;;;29.98;30.83;94192.44;5067703;28;7274;-62
2023/06/29 03:58:53;;;;;;;;;;;;;;;29.98;30.74;94197.97;5031130;28;7242;-63
2023/06/29 04:01:21;;;;;;;;;;;;;;;29.98;30.43;94192.44;5027030;28;7178;-62
2023/06/29 04:03:57;;;;;;;;;;;;;;;29.96;31.33;94192.25;5049739;28;7088;-62
2023/06/29 04:07:03;;;;;;;;;;;;;;;29.96;30.60;94186.69;5045030;28;9037;-62
2023/06/29 04:09:49;;;;;;;;;;;;;;;29.95;31.69;94184.47;5026968;28;7075;-62
2023/06/29 04:12:30;;;;;;;;;;;;;;;29.95;30.54;94182.44;5064396;28;8737;-62
2023/06/29 04:15:02;;;;;;;;;;;;;;;29.92;30.89;94177.97;5049181;28;9030;-61
2023/06/29 04:17:59;;;;;;;;;;;;;;;29.93;31.66;94173.19;5027150;28;7318;-62
2023/06/29 04:20:50;;;;;;;;;;;;;;;29.92;30.59;94186.31;5008262;28;7190;-62
2023/06/29 04:23:31;;;;;;;;;;;;;;;29.92;30.98;94186.31;4993609;28;8927;-62
2023/06/29 04:26:15;;;;;;;;;;;;;;;29.93;31.52;94181.50;4993784;28;7462;-62
2023/06/29 04:29:10;;;;;;;;;;;;;;;29.95;30.89;94185.19;4993922;28;7004;-63
2023/06/29 04:31:50;;;;;;;;;;;;;;;29.93;30.97;94185.00;5007077;28;7012;-62
2023/06/29 04:34:29;;;;;;;;;;;;;;;29.90;30.93;94180.56;4992751;28;8766;-63
2023/06/29 04:37:01;;;;;;;;;;;;;;;29.91;31.65;94190.34;5007968;28;9128;-62
2023/06/29 04:39:32;;;;;;;;;;;;;;;29.90;30.76;94191.66;4990647;28;6993;-62
2023/06/29 04:42:02;;;;;;;;;;;;;;;29.91;30.94;94189.59;5007478;28;9101;-62
2023/06/29 04:44:48;;;;;;;;;;;;;;;29.90;31.44;94180.56;5009239;28;8839;-62
2023/06/29 04:47:25;;;;;;;;;;;;;;;29.91;31.63;94178.50;4993163;28;7230;-62
2023/06/29 04:50:05;;;;;;;;;;;;;;;29.91;30.66;94176.50;4990644;28;8432;-62
2023/06/29 04:52:44;;;;;;;;;;;;;;;29.88;31.68;94177.59;4992737;28;7147;-62
2023/06/29 04:55:26;;;;;;;;;;;;;;;29.87;31.88;94180.88;4992605;28;9183;-62
2023/06/29 04:57:54;;;;;;;;;;;;;;;29.90;30.82;94180.56;5046024;28;8439;-62
2023/06/29 05:00:23;;;;;;;;;;;;;;;29.89;31.67;94181.84;5025608;28;9499;-63
2023/06/29 05:03:04;;;;;;;;;;;;;;;29.90;31.62;94185.34;5049697;28;7205;-63
2023/06/29 05:06:06;;;;;;;;;;;;;;;29.86;32.27;94185.72;5024263;28;9035;-63
2023/06/29 05:08:32;;;;;;;;;;;;;;;29.84;31.53;94193.09;4991830;28;6987;-63
2023/06/29 05:11:06;;;;;;;;;;;;;;;29.86;31.82;94194.03;4988673;28;7034;-63
2023/06/29 05:13:35;;;;;;;;;;;;;;;29.86;31.65;94198.84;4984949;28;7194;-63
2023/06/29 05:16:04;;;;;;;;;;;;;;;29.87;31.29;94192.72;5004096;28;9790;-63
2023/06/29 05:18:37;;;;;;;;;;;;;;;29.88;31.19;94187.94;4989343;28;7282;-63
2023/06/29 05:21:03;;;;;;;;;;;;;;;29.86;31.62;94185.72;4989170;28;7075;-63
2023/06/29 05:23:32;;;;;;;;;;;;;;;29.87;31.59;94176.09;4992159;28;7058;-63
2023/06/29 05:25:59;;;;;;;;;;;;;;;29.87;32.32;94175.34;4999622;28;9079;-63
2023/06/29 05:28:25;;;;;;;;;;;;;;;29.84;31.74;94165.34;5006730;28;6994;-62
2023/06/29 05:30:51;;;;;;;;;;;;;;;29.89;34.56;94181.09;4992251;28;7391;-62
2023/06/29 05:33:24;;;;;;;;;;;;;;;29.93;33.21;94173.19;5007880;28;9189;-61
2023/06/29 05:36:10;;;;;;;;;;;;;;;29.93;35.20;94185.00;5011593;28;7057;-63
2023/06/29 05:38:37;;;;;;;;;;;;;;;29.93;33.48;94170.41;4994520;28;8797;-62
2023/06/29 05:41:03;;;;;;;;;;;;;;;29.93;33.83;94173.91;4993328;28;6985;-63
2023/06/29 05:43:34;;;;;;;;;;;;;;;29.91;33.84;94182.03;5032664;28;7228;-63
2023/06/29 05:45:59;;;;;;;;;;;;;;;29.90;34.10;94175.00;5026327;28;7229;-63
2023/06/29 05:48:28;;;;;;;;;;;;;;;29.91;33.91;94167.41;5030751;28;7233;-63
2023/06/29 05:50:54;;;;;;;;;;;;;;;29.91;32.92;94167.41;5046773;28;9074;-63
2023/06/29 05:53:22;;;;;;;;;;;;;;;29.90;32.78;94174.25;5030150;28;7066;-63
2023/06/29 05:55:49;;;;;;;;;;;;;;;29.88;32.83;94166.50;5024289;28;8832;-63
2023/06/29 05:58:17;;;;;;;;;;;;;;;29.88;32.08;94182.38;5026913;28;7267;-63
2023/06/29 06:00:45;;;;;;;;;;;;;;;29.90;31.88;94179.81;5028009;28;6989;-63
2023/06/29 06:03:13;;;;;;;;;;;;;;;29.87;31.73;94175.34;5033355;28;6859;-62
2023/06/29 06:05:41;;;;;;;;;;;;;;;29.87;31.82;94176.09;5065886;28;7703;-62
2023/06/29 06:08:12;;;;;;;;;;;;;;;29.89;32.24;94178.31;5027215;28;7073;-62
2023/06/29 06:10:40;;;;;;;;;;;;;;;29.87;32.55;94165.00;5049283;28;7084;-62
2023/06/29 06:13:07;;;;;;;;;;;;;;;29.89;32.84;94173.50;5026018;28;9231;-62
2023/06/29 06:15:41;;;;;;;;;;;;;;;29.91;32.55;94170.94;5028215;28;7225;-62
2023/06/29 06:18:11;;;;;;;;;;;;;;;29.89;32.75;94179.06;5032633;28;8181;-63
2023/06/29 06:20:38;;;;;;;;;;;;;;;29.90;32.07;94169.47;5041204;28;7642;-62
2023/06/29 06:23:04;;;;;;;;;;;;;;;29.90;32.81;94166.69;5064990;28;9155;-62
2023/06/29 06:25:31;;;;;;;;;;;;;;;29.88;32.12;94160.97;5066509;28;7352;-62
2023/06/29 06:27:58;;;;;;;;;;;;;;;29.88;32.17;94166.50;5048412;28;7137;-62
2023/06/29 06:30:24;;;;;;;;;;;;;;;29.87;33.24;94165.00;5025163;28;7308;-62
2023/06/29 06:32:50;;;;;;;;;;;;;;;29.88;32.79;94160.22;5045421;28;7232;-62
2023/06/29 06:35:16;;;;;;;;;;;;;;;29.87;32.13;94165.00;5051418;28;7270;-62
2023/06/29 06:37:48;;;;;;;;;;;;;;;29.89;32.82;94162.44;5053630;28;6976;-62
2023/06/29 06:40:16;;;;;;;;;;;;;;;29.86;32.62;94163.53;5029985;28;7248;-62
2023/06/29 06:42:42;;;;;;;;;;;;;;;29.90;32.97;94169.47;5026509;28;9365;-62
2023/06/29 06:45:11;;;;;;;;;;;;;;;29.90;32.54;94165.94;5025540;28;6965;-62
2023/06/29 06:47:37;;;;;;;;;;;;;;;29.88;32.08;94166.50;5023994;28;6983;-63
2023/06/29 06:50:06;;;;;;;;;;;;;;;29.91;32.24;94164.66;5049771;28;8207;-62
2023/06/29 06:52:32;;;;;;;;;;;;;;;29.90;32.41;94161.16;5046149;28;7649;-62
2023/06/29 06:55:00;;;;;;;;;;;;;;;29.89;32.16;94162.44;5022897;28;8735;-63
2023/06/29 06:57:26;;;;;;;;;;;;;;;29.89;32.33;94167.97;5048173;28;7249;-63
2023/06/29 06:59:54;;;;;;;;;;;;;;;29.87;31.88;94153.91;5049402;28;8079;-63
2023/06/29 07:02:23;;;;;;;;;;;;;;;29.91;32.55;94165.41;5046312;28;7604;-62
2023/06/29 07:04:51;;;;;;;;;;;;;;;29.91;32.90;94164.66;5063916;28;7472;-63
2023/06/29 07:07:22;;;;;;;;;;;;;;;29.91;32.36;94170.94;5065290;28;8754;-62
2023/06/29 07:10:07;;;;;;;;;;;;;;;29.89;31.96;94161.69;5027690;28;7262;-63
2023/06/29 07:12:42;;;;;;;;;;;;;;;29.89;31.89;94162.44;5030930;28;9096;-62
2023/06/29 07:15:19;;;;;;;;;;;;;;;29.92;32.62;94166.16;5052028;28;8999;-62
2023/06/29 07:17:49;;;;;;;;;;;;;;;29.89;32.22;94165.19;5048718;28;7225;-63
2023/06/29 07:20:22;;;;;;;;;;;;;;;29.89;32.45;94165.19;5029077;28;8732;-63
2023/06/29 07:22:48;;;;;;;;;;;;;;;29.88;31.64;94162.97;5051320;28;7328;-63
2023/06/29 07:25:16;;;;;;;;;;;;;;;29.90;32.64;94160.41;5028202;28;7650;-63
2023/06/29 07:27:55;;;;;;;;;;;;;;;29.91;32.38;94159.84;5029298;28;7050;-63
2023/06/29 07:30:21;;;;;;;;;;;;;;;29.89;31.65;94156.13;5051221;28;7419;-63
2023/06/29 07:32:47;;;;;;;;;;;;;;;29.89;32.77;94158.91;5029243;28;7231;-63
2023/06/29 07:35:13;;;;;;;;;;;;;;;29.91;31.64;94156.31;5051213;28;7032;-63
2023/06/29 07:37:39;;;;;;;;;;;;;;;29.93;32.91;94162.81;5047100;28;7282;-63
2023/06/29 07:40:06;;;;;;;;;;;;;;;29.95;31.73;94159.53;5047398;28;8816;-63
2023/06/29 07:42:32;;;;;;;;;;;;;;;29.95;32.61;94160.25;5029523;28;7245;-63
2023/06/29 07:44:58;;;;;;;;;;;;;;;29.96;32.00;94158.97;5023983;28;9052;-63
2023/06/29 07:47:28;;;;;;;;;;;;;;;29.93;32.45;94148.94;5049440;28;7491;-63
2023/06/29 07:49:57;;;;;;;;;;;;;;;29.96;32.82;94156.19;5050792;28;7307;-63
2023/06/29 07:52:41;;;;;;;;;;;;;;;29.95;32.41;94154.69;5068500;28;7054;-63
2023/06/29 07:55:34;;;;;;;;;;;;;;;29.97;32.92;94145.84;5049872;28;8194;-63
2023/06/29 07:58:01;;;;;;;;;;;;;;;29.97;32.07;94143.06;5050481;28;7312;-64
2023/06/29 08:00:30;;;;;;;;;;;;;;;29.97;32.73;94148.63;5063557;28;9479;-63
2023/06/29 08:02:56;;;;;;;;;;;;;;;29.96;32.81;94153.41;5046618;28;7277;-63
2023/06/29 08:05:22;;;;;;;;;;;;;;;29.97;32.55;94145.84;5046000;28;6984;-63
2023/06/29 08:07:49;;;;;;;;;;;;;;;29.97;32.53;94145.84;5045244;28;7356;-63
2023/06/29 08:10:15;;;;;;;;;;;;;;;29.97;32.36;94138.25;5023487;28;8956;-63
2023/06/29 08:12:51;;;;;;;;;;;;;;;29.96;32.92;94141.56;5068768;28;7520;-63
2023/06/29 08:15:21;;;;;;;;;;;;;;;29.99;32.08;94137.72;5030519;28;9036;-63
2023/06/29 08:17:56;;;;;;;;;;;;;;;29.98;32.07;94136.97;5033492;28;7257;-63
2023/06/29 08:20:30;;;;;;;;;;;;;;;30.00;32.19;94139.19;5050345;28;7323;-63
2023/06/29 08:22:56;;;;;;;;;;;;;;;29.98;31.91;94136.22;5064222;28;8764;-63
2023/06/29 08:25:23;;;;;;;;;;;;;;;29.95;32.84;94138.06;5053802;28;9078;-63
2023/06/29 08:27:59;;;;;;;;;;;;;;;29.98;32.06;94142.53;5051223;28;9055;-62
2023/06/29 08:30:25;;;;;;;;;;;;;;;29.98;32.13;94142.53;5034470;28;9073;-63
2023/06/29 08:33:02;;;;;;;;;;;;;;;29.98;33.25;94145.28;5025833;28;7167;-62
2023/06/29 08:35:28;;;;;;;;;;;;;;;30.00;32.34;94144.75;5049492;28;9095;-63
2023/06/29 08:37:56;;;;;;;;;;;;;;;29.99;32.47;94144.00;5035842;28;8983;-63
2023/06/29 08:40:34;;;;;;;;;;;;;;;29.99;32.48;94148.81;5048723;28;7081;-62
2023/06/29 08:43:01;;;;;;;;;;;;;;;30.00;33.42;94153.06;5028265;28;6983;-63
2023/06/29 08:45:29;;;;;;;;;;;;;;;30.03;32.72;94149.22;5051253;28;7389;-62
2023/06/29 08:48:02;;;;;;;;;;;;;;;30.01;32.65;94146.97;5026952;28;8773;-62
2023/06/29 08:50:34;;;;;;;;;;;;;;;30.01;32.87;94146.97;5064056;28;7685;-63
2023/06/29 08:53:07;;;;;;;;;;;;;;;30.03;32.42;94144.41;5050589;28;8837;-62
2023/06/29 08:55:55;;;;;;;;;;;;;;;30.06;33.40;94148.84;5047975;28;6958;-62
2023/06/29 08:58:33;;;;;;;;;;;;;;;30.08;33.13;94149.03;5048000;28;7425;-62
2023/06/29 09:01:09;;;;;;;;;;;;;;;30.09;32.59;94149.78;5064329;28;7085;-63
2023/06/29 09:03:36;;;;;;;;;;;;;;;30.08;33.02;94151.81;5028042;28;7448;-63
2023/06/29 09:06:29;;;;;;;;;;;;;;;30.11;33.32;94149.97;5048479;28;7999;-63
2023/06/29 09:09:08;;;;;;;;;;;;;;;30.11;32.43;94147.22;4985939;28;9825;-63
2023/06/29 09:11:38;;;;;;;;;;;;;;;30.11;33.42;94147.97;4971268;28;9261;-62
2023/06/29 09:14:14;;;;;;;;;;;;;;;30.12;33.62;94146.69;4973762;28;7268;-62
2023/06/29 09:16:56;;;;;;;;;;;;;;;30.15;32.81;94142.03;4971455;28;7227;-63
2023/06/29 09:19:56;;;;;;;;;;;;;;;30.16;33.50;94147.06;4970239;28;7166;-63
2023/06/29 09:22:27;;;;;;;;;;;;;;;30.15;33.15;94140.03;4984648;28;7779;-62
2023/06/29 09:25:04;;;;;;;;;;;;;;;30.17;33.12;94140.22;4983724;28;7123;-62
2023/06/29 09:27:34;;;;;;;;;;;;;;;30.17;32.48;94137.44;4967602;28;9152;-63
2023/06/29 09:30:04;;;;;;;;;;;;;;;30.19;33.56;94136.91;4989027;28;7627;-62
2023/06/29 09:33:15;;;;;;;;;;;;;;;30.20;33.00;94135.59;4964315;28;7265;-62
2023/06/29 09:36:07;;;;;;;;;;;;;;;30.20;33.20;94141.91;4912876;29;8537;-62
2023/06/29 09:38:34;;;;;;;;;;;;;;;30.20;32.33;94135.59;4913305;29;7764;-62
2023/06/29 09:41:10;;;;;;;;;;;;;;;30.21;32.82;94140.59;4932688;29;7228;-62
2023/06/29 09:43:40;;;;;;;;;;;;;;;30.21;32.17;94132.28;4930378;29;7070;-62
2023/06/29 09:46:08;;;;;;;;;;;;;;;30.23;33.06;94131.75;4947543;28;7414;-62
2023/06/29 09:48:51;;;;;;;;;;;;;;;30.24;32.32;94131.19;4969013;28;9099;-62
2023/06/29 09:51:21;;;;;;;;;;;;;;;30.25;32.67;94137.50;4965730;28;7315;-62
2023/06/29 09:53:48;;;;;;;;;;;;;;;30.23;32.70;94124.16;4964341;28;7209;-62
2023/06/29 09:56:16;;;;;;;;;;;;;;;30.22;32.41;94131.00;4964464;28;9062;-63
2023/06/29 09:58:45;;;;;;;;;;;;;;;30.23;32.41;94128.97;4965780;28;9511;-62
2023/06/29 10:01:11;;;;;;;;;;;;;;;30.25;32.79;94126.38;4968167;28;8886;-62
2023/06/29 10:04:13;;;;;;;;;;;;;;;30.27;31.98;94118.25;4953837;28;7664;-62
2023/06/29 10:07:05;;;;;;;;;;;;;;;30.27;32.38;94123.81;4952227;28;7888;-63
2023/06/29 10:09:46;;;;;;;;;;;;;;;30.24;33.34;94120.09;4938304;28;7383;-61
2023/06/29 10:12:14;;;;;;;;;;;;;;;30.28;32.61;94117.69;4974457;28;6997;-62
2023/06/29 10:14:51;;;;;;;;;;;;;;;30.28;32.71;94120.47;5000043;28;8798;-62
2023/06/29 10:17:34;;;;;;;;;;;;;;;30.29;32.50;94121.97;5000144;28;9306;-62
2023/06/29 10:20:04;;;;;;;;;;;;;;;30.32;33.41;94118.13;5001604;28;7450;-62
2023/06/29 10:22:36;;;;;;;;;;;;;;;30.26;32.77;94116.75;4983833;28;7038;-62
2023/06/29 10:25:09;;;;;;;;;;;;;;;30.24;32.46;94125.63;4975770;28;7237;-61
2023/06/29 10:27:41;;;;;;;;;;;;;;;30.24;32.61;94122.88;4968204;28;7306;-61
2023/06/29 10:30:08;;;;;;;;;;;;;;;30.27;31.93;94126.59;4969351;28;9275;-61
2023/06/29 10:32:49;;;;;;;;;;;;;;;30.24;32.36;94120.09;4973582;28;9313;-61
2023/06/29 10:35:27;;;;;;;;;;;;;;;30.22;31.96;94131.00;4974785;28;7053;-62
2023/06/29 10:38:30;;;;;;;;;;;;;;;30.25;32.53;94124.38;4984562;28;9620;-63
2023/06/29 10:41:28;;;;;;;;;;;;;;;30.27;32.05;94113.47;4986908;28;7931;-63
2023/06/29 10:44:10;;;;;;;;;;;;;;;30.25;32.37;94110.50;5005797;28;9111;-63
2023/06/29 10:46:46;;;;;;;;;;;;;;;30.29;32.78;94115.69;4982042;28;8353;-63
2023/06/29 10:49:26;;;;;;;;;;;;;;;30.30;32.21;94112.34;4991772;28;9033;-62
2023/06/29 10:52:04;;;;;;;;;;;;;;;30.32;32.73;94109.78;4994727;28;7076;-63
2023/06/29 10:54:30;;;;;;;;;;;;;;;30.35;32.35;94108.69;4999408;28;9152;-62
2023/06/29 10:57:10;;;;;;;;;;;;;;;30.38;32.46;94104.09;4991848;28;7118;-62
2023/06/29 10:59:39;;;;;;;;;;;;;;;30.38;32.32;94107.59;4982853;28;6997;-62
2023/06/29 11:02:10;;;;;;;;;;;;;;;30.37;32.50;94100.56;4986379;28;7247;-62
2023/06/29 11:04:42;;;;;;;;;;;;;;;30.41;32.44;94109.28;5004079;28;6994;-62
2023/06/29 11:07:37;;;;;;;;;;;;;;;30.43;31.75;94108.72;4989426;28;7197;-62
2023/06/29 11:10:04;;;;;;;;;;;;;;;30.41;31.75;94105.75;4950368;28;7248;-62
2023/06/29 11:12:32;;;;;;;;;;;;;;;30.45;32.62;94101.31;4950315;28;7187;-62
2023/06/29 11:15:18;;;;;;;;;;;;;;;30.47;31.72;94109.84;4935204;28;7405;-63
2023/06/29 11:17:48;;;;;;;;;;;;;;;30.48;32.35;94102.25;4949493;28;7259;-62
2023/06/29 11:20:16;;;;;;;;;;;;;;;30.49;32.87;94101.69;4952235;28;6998;-62
2023/06/29 11:22:48;;;;;;;;;;;;;;;30.48;32.98;94099.47;4954111;28;7294;-62
2023/06/29 11:25:26;;;;;;;;;;;;;;;30.49;31.71;94092.66;4971105;28;9450;-62
2023/06/29 11:28:21;;;;;;;;;;;;;;;30.52;32.04;94089.50;4986183;28;7044;-62
2023/06/29 11:31:05;;;;;;;;;;;;;;;30.51;31.45;94082.47;4898570;29;8583;-63
2023/06/29 11:33:35;;;;;;;;;;;;;;;30.54;32.66;94086.19;4913801;29;7638;-63
2023/06/29 11:36:33;;;;;;;;;;;;;;;30.55;32.61;94082.13;4914706;29;9471;-63
2023/06/29 11:39:08;;;;;;;;;;;;;;;30.57;32.43;94078.78;4861747;29;9430;-63
2023/06/29 11:41:38;;;;;;;;;;;;;;;30.58;32.21;94085.84;4863020;29;9270;-63
2023/06/29 11:44:13;;;;;;;;;;;;;;;30.59;32.52;94082.50;4844724;29;8373;-63
2023/06/29 11:46:42;;;;;;;;;;;;;;;30.58;31.84;94077.50;4867822;29;8767;-62
2023/06/29 11:49:38;;;;;;;;;;;;;;;30.59;32.15;94076.19;4891758;29;8475;-63
2023/06/29 11:52:16;;;;;;;;;;;;;;;30.60;32.12;94072.13;4907984;29;7254;-62
2023/06/29 11:54:55;;;;;;;;;;;;;;;30.60;31.61;94064.56;4891190;29;7212;-62
2023/06/29 11:57:51;;;;;;;;;;;;;;;30.63;32.60;94059.91;4907159;29;7359;-61
2023/06/29 12:00:20;;;;;;;;;;;;;;;30.65;32.69;94057.31;4891273;29;7224;-61
2023/06/29 12:03:33;;;;;;;;;;;;;;;30.67;32.86;94060.31;4908806;29;7068;-61
2023/06/29 12:06:20;;;;;;;;;;;;;;;30.68;32.88;94056.22;4869685;29;7273;-61
2023/06/29 12:08:55;;;;;;;;;;;;;;;30.67;32.47;94049.94;4927621;28;8925;-61
2023/06/29 12:14:39;;;;;;;;;;;;;;;30.71;33.10;94046.81;4930241;28;7069;-62
2023/06/29 12:17:18;;;;;;;;;;;;;;;30.70;32.74;94045.31;4960841;28;7439;-62
2023/06/29 12:19:44;;;;;;;;;;;;;;;30.71;32.87;94053.09;4963599;28;7255;-62
2023/06/29 12:22:44;;;;;;;;;;;;;;;30.73;32.58;94049.78;4980597;28;7186;-61
2023/06/29 12:25:23;;;;;;;;;;;;;;;30.73;33.04;94044.97;4916302;29;7848;-62
2023/06/29 12:27:59;;;;;;;;;;;;;;;30.75;32.66;94058.28;4932218;28;7454;-62
2023/06/29 12:30:42;;;;;;;;;;;;;;;30.80;33.32;94057.38;4916951;29;7179;-62
2023/06/29 12:33:12;;;;;;;;;;;;;;;30.81;32.49;94051.25;4934034;28;7132;-62
2023/06/29 12:35:40;;;;;;;;;;;;;;;30.82;32.33;94060.34;4949125;28;7033;-62
2023/06/29 12:38:11;;;;;;;;;;;;;;;30.80;32.72;94052.53;4985601;28;8753;-62
2023/06/29 12:40:41;;;;;;;;;;;;;;;30.79;33.03;94053.09;4968594;28;7063;-62
2023/06/29 12:43:07;;;;;;;;;;;;;;;30.82;32.84;94054.78;4968718;28;7311;-62
2023/06/29 12:45:36;;;;;;;;;;;;;;;30.80;32.87;94046.25;4968100;28;8789;-62
2023/06/29 12:48:05;;;;;;;;;;;;;;;30.82;33.20;94043.69;4967017;28;7070;-62
2023/06/29 12:50:33;;;;;;;;;;;;;;;30.83;32.64;94045.13;4967515;28;7128;-62
2023/06/29 12:53:19;;;;;;;;;;;;;;;30.84;32.86;94038.31;4969895;28;7503;-62
2023/06/29 12:55:47;;;;;;;;;;;;;;;30.82;33.13;94032.56;4984371;28;7726;-62
2023/06/29 12:58:44;;;;;;;;;;;;;;;30.83;32.94;94036.81;4971542;28;7708;-62
2023/06/29 13:01:22;;;;;;;;;;;;;;;30.82;33.04;94043.69;4969762;28;9057;-62
2023/06/29 13:03:58;;;;;;;;;;;;;;;30.82;33.52;94040.91;5001057;28;9082;-62
2023/06/29 13:06:24;;;;;;;;;;;;;;;30.82;32.90;94038.13;4980137;28;7175;-62
2023/06/29 13:08:49;;;;;;;;;;;;;;;30.86;32.77;94038.50;4985910;28;7255;-62
2023/06/29 13:11:15;;;;;;;;;;;;;;;30.85;32.54;94032.19;4979913;28;9089;-63
2023/06/29 13:13:41;;;;;;;;;;;;;;;30.85;33.08;94037.00;4985761;28;7159;-62
2023/06/29 13:16:09;;;;;;;;;;;;;;;30.84;33.00;94025.13;4987933;28;7447;-62
2023/06/29 13:18:46;;;;;;;;;;;;;;;30.88;32.87;94035.94;4979728;28;7076;-62
2023/06/29 13:21:14;;;;;;;;;;;;;;;30.88;32.38;94030.38;4983241;28;7192;-62
2023/06/29 13:23:42;;;;;;;;;;;;;;;30.89;32.67;94031.84;4995400;28;8003;-62
2023/06/29 13:26:08;;;;;;;;;;;;;;;30.87;33.25;94026.84;4994072;28;8695;-62
2023/06/29 13:28:37;;;;;;;;;;;;;;;30.88;32.87;94022.78;4993993;28;6955;-62
2023/06/29 13:31:03;;;;;;;;;;;;;;;30.91;32.79;94020.91;5002770;28;6999;-61
2023/06/29 13:33:30;;;;;;;;;;;;;;;30.94;31.85;94023.34;4981659;28;7122;-62
2023/06/29 13:35:57;;;;;;;;;;;;;;;30.94;32.78;94019.81;4999594;28;8472;-62
2023/06/29 13:38:24;;;;;;;;;;;;;;;30.94;32.83;94014.25;5017181;28;7132;-62